Terminal Aerodrome Forecast
Issued by NWS

Home | Current Version | Previous Version | Text Only | Print | Product List | Glossary On
Versions: 1 2 3 4 5 6 7 8 9 10 11 12 13 14 15 16 17 18 19 20 21 22 23 24
000
FTUS41 KOKX 210816 AAA
TAFSWF
TAF AMD
KSWF 210816Z 2108/2212 VRB03KT P6SM FEW010 BKN060
      TEMPO 2108/2110 3SM -RA BR BKN015
     FM211000 25007KT P6SM BKN050
     FM211300 26012KT P6SM BKN050
     FM211500 28015G25KT P6SM SCT050
     FM212300 26010KT P6SM FEW050
     FM220200 25005KT P6SM SKC
     FM221000 25010KT P6SM BKN050
      AMD NOT SKED=

USA.gov is the U.S. government's official web portal to all federal, state and local government web resources and services.